sensor_id;sensor_type;location;lat;lon;timestamp;pressure;altitude;pressure_sealevel;temperature;humidity
26937;BME280;14495;48.116;11.676;2022-09-14T00:01:15;94882.81;;;17.84;100.00
26937;BME280;14495;48.116;11.676;2022-09-14T00:03:41;94884.78;;;17.82;100.00
26937;BME280;14495;48.116;11.676;2022-09-14T00:06:09;94890.19;;;17.72;100.00
26937;BME280;14495;48.116;11.676;2022-09-14T00:08:35;94883.50;;;17.86;100.00
26937;BME280;14495;48.116;11.676;2022-09-14T00:11:10;94896.63;;;17.69;100.00
26937;BME280;14495;48.116;11.676;2022-09-14T00:13:36;94890.34;;;17.70;100.00
26937;BME280;14495;48.116;11.676;2022-09-14T00:16:09;94886.88;;;17.70;100.00
26937;BME280;14495;48.116;11.676;2022-09-14T00:18:36;94881.09;;;17.66;100.00
26937;BME280;14495;48.116;11.676;2022-09-14T00:21:04;94878.34;;;17.50;100.00
26937;BME280;14495;48.116;11.676;2022-09-14T00:23:30;94871.34;;;17.67;100.00
26937;BME280;14495;48.116;11.676;2022-09-14T00:26:02;94862.75;;;17.65;100.00
26937;BME280;14495;48.116;11.676;2022-09-14T00:28:27;94865.22;;;17.66;100.00
26937;BME280;14495;48.116;11.676;2022-09-14T00:30:53;94872.66;;;17.71;100.00
26937;BME280;14495;48.116;11.676;2022-09-14T00:33:18;94867.81;;;17.58;100.00
26937;BME280;14495;48.116;11.676;2022-09-14T00:35:43;94862.78;;;17.73;100.00
26937;BME280;14495;48.116;11.676;2022-09-14T00:38:09;94857.47;;;17.65;100.00
26937;BME280;14495;48.116;11.676;2022-09-14T00:40:35;94854.69;;;17.74;100.00
26937;BME280;14495;48.116;11.676;2022-09-14T00:43:00;94854.53;;;17.76;100.00
26937;BME280;14495;48.116;11.676;2022-09-14T00:45:26;94856.63;;;17.64;100.00
26937;BME280;14495;48.116;11.676;2022-09-14T00:47:52;94852.56;;;17.78;100.00
26937;BME280;14495;48.116;11.676;2022-09-14T00:50:19;94841.31;;;17.76;100.00
26937;BME280;14495;48.116;11.676;2022-09-14T00:52:47;94841.84;;;17.80;100.00
26937;BME280;14495;48.116;11.676;2022-09-14T00:55:16;94837.53;;;17.78;100.00
26937;BME280;14495;48.116;11.676;2022-09-14T00:57:48;94840.66;;;17.74;100.00
26937;BME280;14495;48.116;11.676;2022-09-14T01:00:17;94839.72;;;17.83;100.00
26937;BME280;14495;48.116;11.676;2022-09-14T01:02:43;94836.53;;;17.71;100.00
26937;BME280;14495;48.116;11.676;2022-09-14T01:05:10;94830.59;;;17.69;100.00
26937;BME280;14495;48.116;11.676;2022-09-14T01:10:27;94825.09;;;17.63;100.00
26937;BME280;14495;48.116;11.676;2022-09-14T01:13:12;94831.34;;;17.62;100.00
26937;BME280;14495;48.116;11.676;2022-09-14T01:18:33;94822.16;;;17.74;100.00
26937;BME280;14495;48.116;11.676;2022-09-14T01:21:10;94796.72;;;17.73;100.00
26937;BME280;14495;48.116;11.676;2022-09-14T01:31:59;94787.25;;;17.54;100.00
26937;BME280;14495;48.116;11.676;2022-09-14T01:34:33;94789.22;;;17.52;100.00
26937;BME280;14495;48.116;11.676;2022-09-14T01:37:11;94781.00;;;17.63;100.00
26937;BME280;14495;48.116;11.676;2022-09-14T01:39:43;94779.38;;;17.62;100.00
26937;BME280;14495;48.116;11.676;2022-09-14T01:42:13;94781.00;;;17.63;100.00
26937;BME280;14495;48.116;11.676;2022-09-14T01:44:41;94779.00;;;17.57;100.00
26937;BME280;14495;48.116;11.676;2022-09-14T01:47:16;94777.78;;;17.43;100.00
26937;BME280;14495;48.116;11.676;2022-09-14T01:49:48;94777.84;;;17.51;100.00
26937;BME280;14495;48.116;11.676;2022-09-14T01:52:22;94779.81;;;17.49;100.00
26937;BME280;14495;48.116;11.676;2022-09-14T01:54:59;94770.19;;;17.40;100.00
26937;BME280;14495;48.116;11.676;2022-09-14T01:57:37;94769.88;;;17.43;100.00
26937;BME280;14495;48.116;11.676;2022-09-14T02:00:11;94769.03;;;17.43;100.00
26937;BME280;14495;48.116;11.676;2022-09-14T02:02:41;94768.00;;;17.35;100.00
26937;BME280;14495;48.116;11.676;2022-09-14T02:05:32;94765.75;;;17.41;100.00
26937;BME280;14495;48.116;11.676;2022-09-14T02:07:58;94762.38;;;17.30;100.00
26937;BME280;14495;48.116;11.676;2022-09-14T02:10:25;94759.72;;;17.30;100.00
26937;BME280;14495;48.116;11.676;2022-09-14T02:12:52;94757.50;;;17.44;100.00
26937;BME280;14495;48.116;11.676;2022-09-14T02:15:18;94759.47;;;17.42;100.00
26937;BME280;14495;48.116;11.676;2022-09-14T02:17:44;94752.88;;;17.46;100.00
26937;BME280;14495;48.116;11.676;2022-09-14T02:20:15;94757.16;;;17.38;100.00
26937;BME280;14495;48.116;11.676;2022-09-14T02:22:43;94755.16;;;17.32;100.00
26937;BME280;14495;48.116;11.676;2022-09-14T02:25:08;94751.16;;;17.28;100.00
26937;BME280;14495;48.116;11.676;2022-09-14T02:27:34;94750.53;;;17.34;100.00
26937;BME280;14495;48.116;11.676;2022-09-14T02:29:59;94751.19;;;17.36;100.00
26937;BME280;14495;48.116;11.676;2022-09-14T02:33:04;94751.66;;;17.32;100.00
26937;BME280;14495;48.116;11.676;2022-09-14T02:35:46;94754.81;;;17.35;100.00
26937;BME280;14495;48.116;11.676;2022-09-14T02:41:24;94763.75;;;17.43;100.00
26937;BME280;14495;48.116;11.676;2022-09-14T02:49:31;94759.63;;;17.40;100.00
26937;BME280;14495;48.116;11.676;2022-09-14T02:52:12;94754.53;;;17.47;100.00
26937;BME280;14495;48.116;11.676;2022-09-14T02:54:47;94741.69;;;17.52;100.00
26937;BME280;14495;48.116;11.676;2022-09-14T02:57:15;94735.44;;;17.61;100.00
26937;BME280;14495;48.116;11.676;2022-09-14T02:59:40;94731.63;;;17.55;100.00
26937;BME280;14495;48.116;11.676;2022-09-14T03:02:05;94718.22;;;17.49;100.00
26937;BME280;14495;48.116;11.676;2022-09-14T03:04:31;94709.13;;;17.43;100.00
26937;BME280;14495;48.116;11.676;2022-09-14T03:06:56;94704.34;;;17.38;100.00
26937;BME280;14495;48.116;11.676;2022-09-14T03:09:21;94701.38;;;17.42;100.00
26937;BME280;14495;48.116;11.676;2022-09-14T03:11:47;94696.41;;;17.38;100.00
26937;BME280;14495;48.116;11.676;2022-09-14T03:14:12;94712.28;;;17.47;100.00
26937;BME280;14495;48.116;11.676;2022-09-14T03:16:38;94693.78;;;17.47;100.00
26937;BME280;14495;48.116;11.676;2022-09-14T03:19:04;94685.19;;;17.36;100.00
26937;BME280;14495;48.116;11.676;2022-09-14T03:21:30;94689.31;;;17.39;100.00
26937;BME280;14495;48.116;11.676;2022-09-14T03:23:56;94692.59;;;17.33;100.00
26937;BME280;14495;48.116;11.676;2022-09-14T03:26:25;94694.44;;;17.32;100.00
26937;BME280;14495;48.116;11.676;2022-09-14T03:28:52;94699.16;;;17.20;100.00
26937;BME280;14495;48.116;11.676;2022-09-14T03:31:18;94701.00;;;17.28;100.00
26937;BME280;14495;48.116;11.676;2022-09-14T03:33:44;94714.38;;;17.35;100.00
26937;BME280;14495;48.116;11.676;2022-09-14T03:36:17;94711.91;;;17.33;100.00
26937;BME280;14495;48.116;11.676;2022-09-14T03:38:44;94703.69;;;17.36;100.00
26937;BME280;14495;48.116;11.676;2022-09-14T03:41:10;94702.38;;;17.41;100.00
26937;BME280;14495;48.116;11.676;2022-09-14T03:43:36;94705.00;;;17.32;100.00
26937;BME280;14495;48.116;11.676;2022-09-14T03:46:06;94698.09;;;17.48;100.00
26937;BME280;14495;48.116;11.676;2022-09-14T03:48:32;94694.44;;;17.49;100.00
26937;BME280;14495;48.116;11.676;2022-09-14T03:51:02;94695.41;;;17.39;100.00
26937;BME280;14495;48.116;11.676;2022-09-14T03:53:27;94686.16;;;17.35;100.00
26937;BME280;14495;48.116;11.676;2022-09-14T03:55:53;94683.38;;;17.37;100.00
26937;BME280;14495;48.116;11.676;2022-09-14T03:58:18;94695.09;;;17.43;100.00
26937;BME280;14495;48.116;11.676;2022-09-14T04:00:44;94695.41;;;17.39;100.00
26937;BME280;14495;48.116;11.676;2022-09-14T04:03:09;94689.16;;;17.41;100.00
26937;BME280;14495;48.116;11.676;2022-09-14T04:05:34;94690.13;;;17.39;100.00
26937;BME280;14495;48.116;11.676;2022-09-14T04:08:00;94687.31;;;17.33;100.00
26937;BME280;14495;48.116;11.676;2022-09-14T04:10:26;94681.53;;;17.37;100.00
26937;BME280;14495;48.116;11.676;2022-09-14T04:12:51;94685.88;;;17.47;100.00
26937;BME280;14495;48.116;11.676;2022-09-14T04:15:16;94687.84;;;17.36;100.00
26937;BME280;14495;48.116;11.676;2022-09-14T04:17:42;94692.81;;;17.48;100.00
26937;BME280;14495;48.116;11.676;2022-09-14T04:20:08;94700.75;;;17.56;100.00
26937;BME280;14495;48.116;11.676;2022-09-14T04:22:33;94708.34;;;17.59;100.00
26937;BME280;14495;48.116;11.676;2022-09-14T04:24:58;94716.78;;;17.63;100.00
26937;BME280;14495;48.116;11.676;2022-09-14T04:27:24;94714.81;;;17.65;100.00
26937;BME280;14495;48.116;11.676;2022-09-14T04:29:49;94725.38;;;17.73;100.00
26937;BME280;14495;48.116;11.676;2022-09-14T04:32:15;94722.59;;;17.74;100.00
26937;BME280;14495;48.116;11.676;2022-09-14T04:34:40;94716.97;;;17.69;100.00
26937;BME280;14495;48.116;11.676;2022-09-14T04:37:06;94711.19;;;17.74;100.00
26937;BME280;14495;48.116;11.676;2022-09-14T04:39:31;94717.47;;;17.73;100.00
26937;BME280;14495;48.116;11.676;2022-09-14T04:41:56;94705.41;;;17.78;100.00
26937;BME280;14495;48.116;11.676;2022-09-14T04:44:21;94704.44;;;17.80;100.00
26937;BME280;14495;48.116;11.676;2022-09-14T04:46:47;94713.69;;;17.75;100.00
26937;BME280;14495;48.116;11.676;2022-09-14T04:49:14;94707.31;;;17.86;100.00
26937;BME280;14495;48.116;11.676;2022-09-14T04:51:40;94712.03;;;17.74;100.00
26937;BME280;14495;48.116;11.676;2022-09-14T04:54:06;94711.88;;;17.76;100.00
26937;BME280;14495;48.116;11.676;2022-09-14T04:56:33;94699.81;;;17.82;100.00
26937;BME280;14495;48.116;11.676;2022-09-14T04:59:00;94696.88;;;17.85;100.00
26937;BME280;14495;48.116;11.676;2022-09-14T05:01:31;94705.09;;;17.82;100.00
26937;BME280;14495;48.116;11.676;2022-09-14T05:03:56;94697.56;;;17.87;100.00
26937;BME280;14495;48.116;11.676;2022-09-14T05:06:25;94703.00;;;17.85;100.00
26937;BME280;14495;48.116;11.676;2022-09-14T05:08:52;94709.75;;;17.88;100.00
26937;BME280;14495;48.116;11.676;2022-09-14T05:11:23;94713.44;;;18.20;100.00
26937;BME280;14495;48.116;11.676;2022-09-14T05:13:49;94706.16;;;18.30;100.00
26937;BME280;14495;48.116;11.676;2022-09-14T05:16:24;94709.47;;;18.15;100.00
26937;BME280;14495;48.116;11.676;2022-09-14T05:18:52;94704.03;;;18.09;100.00
26937;BME280;14495;48.116;11.676;2022-09-14T05:21:19;94702.03;;;18.03;100.00
26937;BME280;14495;48.116;11.676;2022-09-14T05:23:46;94700.22;;;18.03;100.00
26937;BME280;14495;48.116;11.676;2022-09-14T05:26:12;94702.38;;;18.16;100.00
26937;BME280;14495;48.116;11.676;2022-09-14T05:28:37;94690.63;;;18.19;100.00
26937;BME280;14495;48.116;11.676;2022-09-14T05:31:07;94692.94;;;18.13;100.00
26937;BME280;14495;48.116;11.676;2022-09-14T05:33:33;94685.66;;;18.32;100.00
26937;BME280;14495;48.116;11.676;2022-09-14T05:36:04;94677.41;;;18.51;100.00
26937;BME280;14495;48.116;11.676;2022-09-14T05:38:32;94683.66;;;18.59;100.00
26937;BME280;14495;48.116;11.676;2022-09-14T05:40:57;94681.03;;;18.59;100.00
26937;BME280;14495;48.116;11.676;2022-09-14T05:43:23;94674.72;;;18.68;100.00
26937;BME280;14495;48.116;11.676;2022-09-14T05:45:49;94680.63;;;18.78;100.00
26937;BME280;14495;48.116;11.676;2022-09-14T05:48:14;94680.78;;;18.93;100.00
26937;BME280;14495;48.116;11.676;2022-09-14T05:50:39;94672.00;;;19.09;100.00
26937;BME280;14495;48.116;11.676;2022-09-14T05:53:05;94674.31;;;19.12;100.00
26937;BME280;14495;48.116;11.676;2022-09-14T05:55:30;94678.78;;;19.43;100.00
26937;BME280;14495;48.116;11.676;2022-09-14T05:57:55;94667.94;;;19.61;100.00
26937;BME280;14495;48.116;11.676;2022-09-14T06:00:21;94675.25;;;19.50;100.00
26937;BME280;14495;48.116;11.676;2022-09-14T06:02:47;94673.56;;;19.58;100.00
26937;BME280;14495;48.116;11.676;2022-09-14T06:05:13;94673.72;;;19.64;100.00
26937;BME280;14495;48.116;11.676;2022-09-14T06:07:39;94674.91;;;19.62;100.00
26937;BME280;14495;48.116;11.676;2022-09-14T06:10:05;94662.09;;;19.65;100.00
26937;BME280;14495;48.116;11.676;2022-09-14T06:12:30;94667.28;;;19.90;100.00
26937;BME280;14495;48.116;11.676;2022-09-14T06:14:55;94667.81;;;19.85;100.00
26937;BME280;14495;48.116;11.676;2022-09-14T06:17:21;94677.75;;;19.83;100.00
26937;BME280;14495;48.116;11.676;2022-09-14T06:19:46;94679.81;;;19.96;100.00
26937;BME280;14495;48.116;11.676;2022-09-14T06:22:11;94686.41;;;20.00;100.00
26937;BME280;14495;48.116;11.676;2022-09-14T06:24:37;94688.78;;;20.18;100.00
26937;BME280;14495;48.116;11.676;2022-09-14T06:27:02;94697.22;;;20.22;100.00
26937;BME280;14495;48.116;11.676;2022-09-14T06:29:27;94707.59;;;20.08;100.00
26937;BME280;14495;48.116;11.676;2022-09-14T06:31:53;94697.16;;;20.07;100.00
26937;BME280;14495;48.116;11.676;2022-09-14T06:34:18;94707.53;;;19.94;100.00
26937;BME280;14495;48.116;11.676;2022-09-14T06:36:44;94696.53;;;19.74;100.00
26937;BME280;14495;48.116;11.676;2022-09-14T06:39:15;94701.19;;;19.63;100.00
26937;BME280;14495;48.116;11.676;2022-09-14T06:41:40;94704.25;;;19.52;100.00
26937;BME280;14495;48.116;11.676;2022-09-14T06:44:05;94704.00;;;19.70;100.00
26937;BME280;14495;48.116;11.676;2022-09-14T06:46:32;94711.25;;;19.76;100.00
26937;BME280;14495;48.116;11.676;2022-09-14T06:49:06;94713.44;;;19.73;100.00
26937;BME280;14495;48.116;11.676;2022-09-14T06:51:37;94710.38;;;19.84;100.00
26937;BME280;14495;48.116;11.676;2022-09-14T06:54:04;94718.34;;;19.84;100.00
26937;BME280;14495;48.116;11.676;2022-09-14T06:56:31;94719.44;;;19.98;100.00
26937;BME280;14495;48.116;11.676;2022-09-14T06:58:57;94722.22;;;20.04;100.00
26937;BME280;14495;48.116;11.676;2022-09-14T07:01:24;94701.84;;;19.97;100.00
26937;BME280;14495;48.116;11.676;2022-09-14T07:03:51;94701.09;;;19.88;100.00
26937;BME280;14495;48.116;11.676;2022-09-14T07:06:21;94673.34;;;19.76;100.00
26937;BME280;14495;48.116;11.676;2022-09-14T07:08:48;94680.00;;;19.63;100.00
26937;BME280;14495;48.116;11.676;2022-09-14T07:11:15;94675.44;;;19.80;100.00
26937;BME280;14495;48.116;11.676;2022-09-14T07:13:42;94672.34;;;19.77;100.00
26937;BME280;14495;48.116;11.676;2022-09-14T07:16:07;94679.59;;;19.83;100.00
26937;BME280;14495;48.116;11.676;2022-09-14T07:18:33;94675.88;;;19.92;100.00
26937;BME280;14495;48.116;11.676;2022-09-14T07:21:14;94666.38;;;20.21;100.00
26937;BME280;14495;48.116;11.676;2022-09-14T07:23:41;94673.34;;;19.99;100.00
26937;BME280;14495;48.116;11.676;2022-09-14T07:26:19;94688.91;;;20.02;100.00
26937;BME280;14495;48.116;11.676;2022-09-14T07:28:47;94697.16;;;20.07;100.00
26937;BME280;14495;48.116;11.676;2022-09-14T07:31:19;94695.16;;;20.32;100.00
26937;BME280;14495;48.116;11.676;2022-09-14T07:33:54;94691.59;;;20.17;100.00
26937;BME280;14495;48.116;11.676;2022-09-14T07:36:20;94698.66;;;20.47;100.00
26937;BME280;14495;48.116;11.676;2022-09-14T07:38:46;94701.41;;;20.77;100.00
26937;BME280;14495;48.116;11.676;2022-09-14T07:41:12;94698.81;;;20.69;100.00
26937;BME280;14495;48.116;11.676;2022-09-14T07:43:37;94700.19;;;20.65;100.00
26937;BME280;14495;48.116;11.676;2022-09-14T07:46:03;94705.91;;;20.77;100.00
26937;BME280;14495;48.116;11.676;2022-09-14T07:48:30;94698.94;;;20.76;100.00
26937;BME280;14495;48.116;11.676;2022-09-14T07:51:03;94697.66;;;20.87;100.00
26937;BME280;14495;48.116;11.676;2022-09-14T07:53:29;94696.28;;;21.05;100.00
26937;BME280;14495;48.116;11.676;2022-09-14T07:55:58;94702.34;;;21.14;100.00
26937;BME280;14495;48.116;11.676;2022-09-14T07:58:24;94692.69;;;21.43;100.00
26937;BME280;14495;48.116;11.676;2022-09-14T08:00:51;94696.84;;;21.60;100.00
26937;BME280;14495;48.116;11.676;2022-09-14T08:03:16;94696.22;;;21.80;100.00
26937;BME280;14495;48.116;11.676;2022-09-14T08:05:41;94703.34;;;22.31;100.00
26937;BME280;14495;48.116;11.676;2022-09-14T08:08:07;94709.84;;;22.50;100.00
26937;BME280;14495;48.116;11.676;2022-09-14T08:10:33;94705.94;;;22.46;100.00
26937;BME280;14495;48.116;11.676;2022-09-14T08:12:59;94715.72;;;22.67;100.00
26937;BME280;14495;48.116;11.676;2022-09-14T08:15:24;94722.19;;;23.07;100.00
26937;BME280;14495;48.116;11.676;2022-09-14T08:17:51;94721.91;;;23.02;100.00
26937;BME280;14495;48.116;11.676;2022-09-14T08:20:16;94725.56;;;23.23;100.00
26937;BME280;14495;48.116;11.676;2022-09-14T08:22:42;94725.72;;;23.49;100.00
26937;BME280;14495;48.116;11.676;2022-09-14T08:25:09;94726.84;;;23.33;100.00
26937;BME280;14495;48.116;11.676;2022-09-14T08:27:34;94715.53;;;23.66;100.00
26937;BME280;14495;48.116;11.676;2022-09-14T08:30:00;94720.19;;;23.92;100.00
26937;BME280;14495;48.116;11.676;2022-09-14T08:32:25;94720.69;;;23.74;100.00
26937;BME280;14495;48.116;11.676;2022-09-14T08:34:50;94711.03;;;23.67;100.00
26937;BME280;14495;48.116;11.676;2022-09-14T08:37:16;94713.28;;;23.70;100.00
26937;BME280;14495;48.116;11.676;2022-09-14T08:39:42;94718.72;;;23.83;100.00
26937;BME280;14495;48.116;11.676;2022-09-14T08:42:13;94734.19;;;24.08;100.00
26937;BME280;14495;48.116;11.676;2022-09-14T08:45:01;94722.72;;;24.27;100.00
26937;BME280;14495;48.116;11.676;2022-09-14T08:47:31;94732.63;;;24.40;100.00
26937;BME280;14495;48.116;11.676;2022-09-14T08:50:18;94724.63;;;24.67;100.00
26937;BME280;14495;48.116;11.676;2022-09-14T08:52:47;94719.50;;;25.32;100.00
26937;BME280;14495;48.116;11.676;2022-09-14T08:55:41;94720.06;;;25.48;91.42
26937;BME280;14495;48.116;11.676;2022-09-14T09:06:09;94738.34;;;26.16;78.11
26937;BME280;14495;48.116;11.676;2022-09-14T09:08:46;94735.41;;;26.63;76.25
26937;BME280;14495;48.116;11.676;2022-09-14T09:11:17;94745.31;;;26.23;75.06
26937;BME280;14495;48.116;11.676;2022-09-14T09:13:44;94740.81;;;26.49;73.87
26937;BME280;14495;48.116;11.676;2022-09-14T09:16:11;94730.00;;;26.69;73.14
26937;BME280;14495;48.116;11.676;2022-09-14T09:18:46;94742.69;;;27.31;69.92
26937;BME280;14495;48.116;11.676;2022-09-14T09:21:19;94735.94;;;27.28;68.54
26937;BME280;14495;48.116;11.676;2022-09-14T09:23:46;94746.81;;;28.07;66.42
26937;BME280;14495;48.116;11.676;2022-09-14T09:26:29;94742.94;;;28.22;64.94
26937;BME280;14495;48.116;11.676;2022-09-14T09:28:59;94750.84;;;28.17;61.34
26937;BME280;14495;48.116;11.676;2022-09-14T09:31:33;94745.34;;;28.42;61.93
26937;BME280;14495;48.116;11.676;2022-09-14T09:34:00;94740.66;;;28.67;60.52
26937;BME280;14495;48.116;11.676;2022-09-14T09:36:38;94730.72;;;28.68;59.02
26937;BME280;14495;48.116;11.676;2022-09-14T09:39:04;94746.22;;;27.50;62.25
26937;BME280;14495;48.116;11.676;2022-09-14T09:41:41;94755.94;;;27.00;66.84
26937;BME280;14495;48.116;11.676;2022-09-14T09:44:08;94748.41;;;27.41;65.52
26937;BME280;14495;48.116;11.676;2022-09-14T09:46:49;94742.19;;;26.90;65.72
26937;BME280;14495;48.116;11.676;2022-09-14T09:49:34;94762.34;;;26.99;67.72
26937;BME280;14495;48.116;11.676;2022-09-14T09:52:08;94761.50;;;26.74;67.47
26937;BME280;14495;48.116;11.676;2022-09-14T09:54:34;94754.53;;;26.28;70.26
26937;BME280;14495;48.116;11.676;2022-09-14T09:57:04;94762.47;;;26.09;73.22
26937;BME280;14495;48.116;11.676;2022-09-14T09:59:39;94758.75;;;26.10;75.67
26937;BME280;14495;48.116;11.676;2022-09-14T10:08:05;94742.28;;;28.08;61.82
26937;BME280;14495;48.116;11.676;2022-09-14T10:13:05;94742.31;;;27.27;62.31
26937;BME280;14495;48.116;11.676;2022-09-14T10:15:37;94725.06;;;26.66;64.26
26937;BME280;14495;48.116;11.676;2022-09-14T10:20:35;94726.63;;;28.65;58.75
26937;BME280;14495;48.116;11.676;2022-09-14T10:23:37;94712.09;;;29.20;55.85
26937;BME280;14495;48.116;11.676;2022-09-14T10:28:34;94696.53;;;29.46;56.02
26937;BME280;14495;48.116;11.676;2022-09-14T10:31:14;94701.06;;;28.86;56.39
26937;BME280;14495;48.116;11.676;2022-09-14T10:33:43;94707.72;;;29.66;54.54
26937;BME280;14495;48.116;11.676;2022-09-14T10:39:13;94697.16;;;29.24;56.31
26937;BME280;14495;48.116;11.676;2022-09-14T10:41:41;94684.72;;;29.47;55.21
26937;BME280;14495;48.116;11.676;2022-09-14T10:47:28;94691.69;;;27.56;61.50
26937;BME280;14495;48.116;11.676;2022-09-14T10:50:23;94677.38;;;27.62;60.71
26937;BME280;14495;48.116;11.676;2022-09-14T11:17:22;94646.72;;;32.14;49.93
26937;BME280;14495;48.116;11.676;2022-09-14T11:19:59;94647.13;;;32.28;48.52
26937;BME280;14495;48.116;11.676;2022-09-14T11:25:20;94645.72;;;31.98;48.00
26937;BME280;14495;48.116;11.676;2022-09-14T11:27:53;94643.06;;;31.37;47.58
26937;BME280;14495;48.116;11.676;2022-09-14T11:30:36;94631.63;;;30.91;49.52
26937;BME280;14495;48.116;11.676;2022-09-14T11:33:47;94628.50;;;30.82;49.71
26937;BME280;14495;48.116;11.676;2022-09-14T11:35:56;94624.50;;;31.41;48.35
26937;BME280;14495;48.116;11.676;2022-09-14T11:38:28;94630.84;;;29.99;49.95
26937;BME280;14495;48.116;11.676;2022-09-14T11:41:15;94622.56;;;28.30;54.39
26937;BME280;14495;48.116;11.676;2022-09-14T11:43:46;94621.56;;;28.90;53.00
26937;BME280;14495;48.116;11.676;2022-09-14T11:46:16;94613.69;;;30.85;49.64
26937;BME280;14495;48.116;11.676;2022-09-14T11:51:23;94611.06;;;32.45;45.45
26937;BME280;14495;48.116;11.676;2022-09-14T11:53:51;94604.38;;;31.49;46.35
26937;BME280;14495;48.116;11.676;2022-09-14T11:56:29;94608.44;;;30.39;48.87
26937;BME280;14495;48.116;11.676;2022-09-14T11:58:57;94600.28;;;30.90;48.44
26937;BME280;14495;48.116;11.676;2022-09-14T12:01:25;94592.66;;;31.87;46.64
26937;BME280;14495;48.116;11.676;2022-09-14T12:03:53;94585.09;;;31.01;47.91
26937;BME280;14495;48.116;11.676;2022-09-14T12:11:54;94583.84;;;31.97;46.41
26937;BME280;14495;48.116;11.676;2022-09-14T12:19:43;94573.91;;;31.53;47.69
26937;BME280;14495;48.116;11.676;2022-09-14T12:22:35;94574.47;;;31.55;47.43
26937;BME280;14495;48.116;11.676;2022-09-14T12:25:18;94583.13;;;31.57;47.42
26937;BME280;14495;48.116;11.676;2022-09-14T12:27:46;94574.50;;;31.16;49.63
26937;BME280;14495;48.116;11.676;2022-09-14T12:31:05;94575.31;;;30.95;49.69
26937;BME280;14495;48.116;11.676;2022-09-14T12:36:08;94577.81;;;29.30;53.93
26937;BME280;14495;48.116;11.676;2022-09-14T12:38:39;94572.78;;;29.34;53.23
26937;BME280;14495;48.116;11.676;2022-09-14T13:04:24;94587.56;;;26.91;58.33
26937;BME280;14495;48.116;11.676;2022-09-14T13:06:52;94586.44;;;26.61;59.08
26937;BME280;14495;48.116;11.676;2022-09-14T13:09:21;94591.22;;;26.53;60.54
26937;BME280;14495;48.116;11.676;2022-09-14T13:11:59;94574.53;;;26.26;61.91
26937;BME280;14495;48.116;11.676;2022-09-14T13:14:29;94579.59;;;26.15;63.30
26937;BME280;14495;48.116;11.676;2022-09-14T13:16:58;94564.47;;;25.89;63.89
26937;BME280;14495;48.116;11.676;2022-09-14T13:19:27;94571.09;;;25.87;65.67
26937;BME280;14495;48.116;11.676;2022-09-14T13:21:55;94558.63;;;25.74;65.69
26937;BME280;14495;48.116;11.676;2022-09-14T13:27:15;94567.22;;;25.82;66.99
26937;BME280;14495;48.116;11.676;2022-09-14T13:29:45;94561.22;;;25.87;66.87
26937;BME280;14495;48.116;11.676;2022-09-14T13:32:17;94562.47;;;25.84;69.87
26937;BME280;14495;48.116;11.676;2022-09-14T13:34:45;94565.19;;;25.78;67.80
26937;BME280;14495;48.116;11.676;2022-09-14T13:37:14;94550.63;;;25.67;68.65
26937;BME280;14495;48.116;11.676;2022-09-14T13:39:40;94563.50;;;25.52;70.96
26937;BME280;14495;48.116;11.676;2022-09-14T13:42:09;94550.78;;;25.47;73.22
26937;BME280;14495;48.116;11.676;2022-09-14T13:44:40;94546.72;;;25.38;75.55
26937;BME280;14495;48.116;11.676;2022-09-14T13:47:14;94542.88;;;25.59;77.25
26937;BME280;14495;48.116;11.676;2022-09-14T13:49:41;94549.78;;;25.73;78.68
26937;BME280;14495;48.116;11.676;2022-09-14T13:52:18;94543.25;;;25.62;77.69
26937;BME280;14495;48.116;11.676;2022-09-14T13:54:43;94541.28;;;25.83;77.55
26937;BME280;14495;48.116;11.676;2022-09-14T13:57:11;94551.44;;;26.06;78.01
26937;BME280;14495;48.116;11.676;2022-09-14T14:02:43;94553.63;;;25.84;75.05
26937;BME280;14495;48.116;11.676;2022-09-14T14:05:20;94550.13;;;25.83;76.81
26937;BME280;14495;48.116;11.676;2022-09-14T14:07:47;94557.06;;;25.59;77.26
26937;BME280;14495;48.116;11.676;2022-09-14T14:10:31;94554.63;;;25.58;80.29
26937;BME280;14495;48.116;11.676;2022-09-14T14:12:58;94557.94;;;25.53;77.54
26937;BME280;14495;48.116;11.676;2022-09-14T14:17:50;94557.41;;;25.38;86.47
26937;BME280;14495;48.116;11.676;2022-09-14T14:25:27;94560.84;;;24.93;82.29
26937;BME280;14495;48.116;11.676;2022-09-14T14:27:57;94567.25;;;24.72;84.99
26937;BME280;14495;48.116;11.676;2022-09-14T14:30:23;94570.38;;;24.69;83.81
26937;BME280;14495;48.116;11.676;2022-09-14T14:32:52;94569.50;;;24.82;85.84
26937;BME280;14495;48.116;11.676;2022-09-14T14:35:21;94562.13;;;24.70;84.00
26937;BME280;14495;48.116;11.676;2022-09-14T14:37:47;94568.09;;;24.59;86.03
26937;BME280;14495;48.116;11.676;2022-09-14T14:40:14;94567.91;;;24.61;85.92
26937;BME280;14495;48.116;11.676;2022-09-14T14:42:40;94565.44;;;24.46;86.69
26937;BME280;14495;48.116;11.676;2022-09-14T14:45:12;94563.41;;;24.35;87.23
26937;BME280;14495;48.116;11.676;2022-09-14T14:47:38;94556.22;;;24.28;87.18
26937;BME280;14495;48.116;11.676;2022-09-14T14:50:11;94560.72;;;24.28;87.78
26937;BME280;14495;48.116;11.676;2022-09-14T14:52:37;94557.00;;;24.36;86.86
26937;BME280;14495;48.116;11.676;2022-09-14T14:55:02;94552.13;;;24.19;87.43
26937;BME280;14495;48.116;11.676;2022-09-14T14:57:27;94550.47;;;24.18;89.51
26937;BME280;14495;48.116;11.676;2022-09-14T14:59:54;94561.34;;;24.23;93.89
26937;BME280;14495;48.116;11.676;2022-09-14T15:02:19;94567.09;;;24.20;95.25
26937;BME280;14495;48.116;11.676;2022-09-14T15:04:44;94560.31;;;23.98;96.04